createdAt,value
2022-08-24T00:00:35.231Z,10.53
2022-08-24T00:03:03.071Z,12.33
2022-08-24T00:05:35.844Z,21.13
2022-08-24T00:08:03.217Z,12.57
2022-08-24T00:10:30.125Z,12.27
2022-08-24T00:12:58.020Z,11.93
2022-08-24T00:15:24.869Z,10.07
2022-08-24T00:17:51.744Z,9.87
2022-08-24T00:20:18.692Z,9.73
2022-08-24T00:22:45.702Z,11.77
2022-08-24T00:25:13.399Z,12.80
2022-08-24T00:27:41.904Z,12.03
2022-08-24T00:30:11.812Z,13.90
2022-08-24T00:32:38.725Z,11.50
2022-08-24T00:35:07.430Z,10.27
2022-08-24T00:37:35.292Z,9.70
2022-08-24T00:40:05.288Z,9.70
2022-08-24T00:42:32.809Z,13.43
2022-08-24T00:44:59.792Z,11.90
2022-08-24T00:47:34.645Z,11.80
2022-08-24T00:50:06.302Z,9.93
2022-08-24T00:52:40.927Z,11.93
2022-08-24T00:55:13.106Z,12.47
2022-08-24T00:57:44.600Z,11.07
2022-08-24T01:00:23.171Z,9.77
2022-08-24T01:02:58.727Z,12.33
2022-08-24T01:05:25.650Z,10.13
2022-08-24T01:07:53.009Z,11.93
2022-08-24T01:10:25.841Z,14.80
2022-08-24T01:13:00.522Z,13.27
2022-08-24T01:15:29.940Z,11.83
2022-08-24T01:18:16.224Z,10.70
2022-08-24T01:20:48.102Z,13.47
2022-08-24T01:23:36.475Z,15.63
2022-08-24T01:26:04.414Z,11.40
2022-08-24T01:28:31.494Z,12.23
2022-08-24T01:30:59.801Z,11.40
2022-08-24T01:33:31.470Z,12.13
2022-08-24T01:36:18.636Z,11.20
2022-08-24T01:38:47.313Z,10.93
2022-08-24T01:41:15.436Z,12.93
2022-08-24T01:43:42.306Z,11.30
2022-08-24T01:46:09.560Z,12.07
2022-08-24T01:48:36.767Z,14.50
2022-08-24T01:51:04.222Z,11.57
2022-08-24T01:53:31.078Z,12.17
2022-08-24T01:55:58.045Z,11.57
2022-08-24T01:58:24.979Z,13.70
2022-08-24T02:00:51.951Z,12.37
2022-08-24T02:03:19.098Z,12.73
2022-08-24T02:05:46.139Z,15.93
2022-08-24T02:08:12.955Z,14.87
2022-08-24T02:10:39.811Z,18.30
2022-08-24T02:13:06.756Z,16.40
2022-08-24T02:15:40.333Z,15.47
2022-08-24T02:18:15.309Z,13.20
2022-08-24T02:20:43.733Z,17.90
2022-08-24T02:23:10.929Z,13.87
2022-08-24T02:25:37.830Z,15.40
2022-08-24T02:28:05.048Z,13.73
2022-08-24T02:30:32.393Z,15.67
2022-08-24T02:33:00.146Z,13.67
2022-08-24T02:35:29.796Z,13.67
2022-08-24T02:37:57.404Z,13.23
2022-08-24T02:40:25.342Z,18.47
2022-08-24T02:42:52.277Z,14.53
2022-08-24T02:45:19.568Z,19.60
2022-08-24T02:47:46.456Z,16.83
2022-08-24T02:50:16.382Z,13.83
2022-08-24T02:52:43.270Z,16.20
2022-08-24T02:55:13.798Z,13.70
2022-08-24T02:57:41.289Z,12.73
2022-08-24T03:00:12.119Z,13.67
2022-08-24T03:02:39.932Z,16.70
2022-08-24T03:05:08.553Z,13.00
2022-08-24T03:07:35.409Z,15.50
2022-08-24T03:10:02.767Z,13.83
2022-08-24T03:12:30.072Z,12.17
2022-08-24T03:14:56.975Z,14.07
2022-08-24T03:17:24.078Z,13.93
2022-08-24T03:19:51.140Z,15.50
2022-08-24T03:22:18.899Z,14.37
2022-08-24T03:24:45.741Z,12.47
2022-08-24T03:27:14.171Z,13.27
2022-08-24T03:29:41.635Z,12.97
2022-08-24T03:32:08.475Z,13.07
2022-08-24T03:34:36.155Z,13.90
2022-08-24T03:37:03.718Z,13.47
2022-08-24T03:39:30.641Z,13.30
2022-08-24T03:41:57.509Z,13.17
2022-08-24T03:44:25.829Z,15.33
2022-08-24T03:46:53.306Z,13.30
2022-08-24T03:49:20.545Z,13.27
2022-08-24T03:51:47.498Z,13.33
2022-08-24T03:54:14.474Z,12.77
2022-08-24T03:56:41.737Z,16.40
2022-08-24T03:59:10.722Z,16.30
2022-08-24T04:01:38.673Z,13.17
2022-08-24T04:04:06.147Z,14.07
2022-08-24T04:06:32.990Z,14.47
2022-08-24T04:08:59.818Z,12.57
2022-08-24T04:11:29.167Z,16.60
2022-08-24T04:13:58.311Z,15.43
2022-08-24T04:16:26.499Z,14.40
2022-08-24T04:18:53.735Z,15.50
2022-08-24T04:21:29.919Z,11.77
2022-08-24T04:23:58.011Z,13.50
2022-08-24T04:26:44.220Z,14.30
2022-08-24T04:29:15.364Z,13.60
2022-08-24T04:31:43.590Z,15.43
2022-08-24T04:34:13.295Z,13.43
2022-08-24T04:36:42.970Z,15.17
2022-08-24T04:39:09.847Z,16.27
2022-08-24T04:41:37.346Z,12.83
2022-08-24T04:44:04.826Z,15.47
2022-08-24T04:46:31.680Z,16.67
2022-08-24T04:48:58.569Z,13.53
2022-08-24T04:51:25.396Z,13.90
2022-08-24T04:53:52.301Z,15.80
2022-08-24T04:56:26.417Z,12.93
2022-08-24T04:58:55.309Z,11.67
2022-08-24T05:01:25.373Z,14.07
2022-08-24T05:03:54.364Z,12.40
2022-08-24T05:06:24.403Z,14.77
2022-08-24T05:08:51.711Z,15.00
2022-08-24T05:11:20.792Z,18.23
2022-08-24T05:13:48.047Z,18.53
2022-08-24T05:16:18.016Z,15.10
2022-08-24T05:18:46.214Z,17.60
2022-08-24T05:21:19.196Z,16.90
2022-08-24T05:23:48.705Z,16.30
2022-08-24T05:26:20.029Z,14.87
2022-08-24T05:28:47.806Z,17.60
2022-08-24T05:31:20.142Z,14.87
2022-08-24T05:33:48.235Z,15.47
2022-08-24T05:36:22.385Z,24.90
2022-08-24T05:38:51.630Z,16.27
2022-08-24T05:41:18.628Z,16.67
2022-08-24T05:43:45.805Z,15.03
2022-08-24T05:46:13.931Z,11.57
2022-08-24T05:48:40.894Z,15.87
2022-08-24T05:51:09.642Z,14.27
2022-08-24T05:53:36.922Z,14.20
2022-08-24T05:56:09.878Z,19.20
2022-08-24T05:58:38.126Z,15.37
2022-08-24T06:01:20.973Z,17.80
2022-08-24T06:03:49.994Z,19.70
2022-08-24T06:06:18.674Z,13.47
2022-08-24T06:08:47.298Z,14.17
2022-08-24T06:11:37.333Z,14.70
2022-08-24T06:14:08.133Z,15.20
2022-08-24T06:16:43.790Z,18.57
2022-08-24T06:19:13.564Z,14.97
2022-08-24T06:21:41.051Z,12.97
2022-08-24T06:24:08.140Z,18.13
2022-08-24T06:26:53.693Z,17.37
2022-08-24T06:29:21.589Z,20.27
2022-08-24T06:31:54.646Z,17.17
2022-08-24T06:34:25.625Z,15.20
2022-08-24T06:36:52.822Z,27.67
2022-08-24T06:39:20.848Z,18.07
2022-08-24T06:41:47.685Z,21.10
2022-08-24T06:44:14.517Z,15.50
2022-08-24T06:46:41.584Z,18.97
2022-08-24T06:49:08.485Z,16.23
2022-08-24T06:51:35.339Z,20.73
2022-08-24T06:54:02.197Z,26.33
2022-08-24T06:56:29.119Z,20.27
2022-08-24T06:58:56.096Z,24.57
2022-08-24T07:01:28.422Z,24.07
2022-08-24T07:03:56.111Z,16.37
2022-08-24T07:06:24.878Z,19.20
2022-08-24T07:08:53.226Z,16.75
2022-08-24T07:11:20.992Z,18.63
2022-08-24T07:13:48.962Z,17.00
2022-08-24T07:16:18.074Z,16.80
2022-08-24T07:18:49.416Z,22.83
2022-08-24T07:21:19.814Z,21.90
2022-08-24T07:23:48.402Z,22.17
2022-08-24T07:26:23.215Z,20.83
2022-08-24T07:29:05.873Z,16.93
2022-08-24T07:31:38.223Z,20.05
2022-08-24T07:34:06.689Z,22.10
2022-08-24T07:36:34.254Z,18.40
2022-08-24T07:39:01.375Z,23.47
2022-08-24T07:42:02.707Z,21.47
2022-08-24T07:44:15.932Z,21.60
2022-08-24T07:46:43.586Z,16.90
2022-08-24T07:49:29.387Z,15.82
2022-08-24T07:51:58.999Z,16.98
2022-08-24T07:54:27.642Z,17.55
2022-08-24T07:56:55.259Z,16.17
2022-08-24T07:59:22.834Z,20.20
2022-08-24T08:01:50.675Z,29.83
2022-08-24T08:04:21.995Z,20.17
2022-08-24T08:06:49.607Z,22.13
2022-08-24T08:09:16.777Z,26.20
2022-08-24T08:11:44.763Z,20.83
2022-08-24T08:14:14.998Z,23.95
2022-08-24T08:16:42.457Z,26.92
2022-08-24T08:19:10.073Z,24.13
2022-08-24T08:22:04.650Z,22.30
2022-08-24T08:24:31.874Z,23.33
2022-08-24T08:27:06.065Z,20.95
2022-08-24T08:29:34.388Z,23.05
2022-08-24T08:32:01.554Z,24.02
2022-08-24T08:34:31.513Z,35.10
2022-08-24T08:36:59.174Z,29.45
2022-08-24T08:39:26.783Z,24.90
2022-08-24T08:42:15.064Z,33.72
2022-08-24T08:44:48.739Z,27.90
2022-08-24T08:47:21.992Z,31.48
2022-08-24T08:50:07.278Z,26.35
2022-08-24T08:52:40.094Z,30.52
2022-08-24T08:55:21.767Z,29.75
2022-08-24T08:58:29.217Z,33.72
2022-08-24T09:01:13.566Z,29.10
2022-08-24T09:04:01.300Z,33.17
2022-08-24T09:07:05.374Z,37.42
2022-08-24T09:10:00.185Z,30.02
2022-08-24T09:12:49.586Z,29.23
2022-08-24T09:16:15.270Z,28.50
2022-08-24T09:18:58.472Z,37.05
2022-08-24T09:21:46.233Z,27.13
2022-08-24T09:24:29.162Z,34.67
2022-08-24T09:27:02.233Z,40.25
2022-08-24T09:30:04.658Z,38.70
2022-08-24T09:33:10.417Z,37.55
2022-08-24T09:36:02.632Z,34.58
2022-08-24T09:38:59.000Z,36.30
2022-08-24T09:41:50.176Z,30.08
2022-08-24T09:45:03.363Z,35.42
2022-08-24T09:48:05.528Z,38.25
2022-08-24T09:51:26.564Z,32.70
2022-08-24T09:54:38.356Z,44.55
2022-08-24T10:01:37.194Z,34.78
2022-08-24T10:04:44.960Z,38.05
2022-08-24T10:07:28.611Z,42.10
2022-08-24T10:10:12.201Z,37.90
2022-08-24T10:13:04.324Z,31.63
2022-08-24T10:15:43.951Z,33.05
2022-08-24T10:18:20.449Z,36.38
2022-08-24T10:21:02.334Z,30.70
2022-08-24T10:23:50.123Z,47.13
2022-08-24T10:26:32.738Z,35.63
2022-08-24T10:29:11.264Z,35.63
2022-08-24T10:32:14.506Z,53.33
2022-08-24T10:35:44.478Z,44.92
2022-08-24T10:38:50.669Z,38.28
2022-08-24T10:41:41.750Z,35.28
2022-08-24T10:44:15.114Z,33.28
2022-08-24T10:47:21.501Z,32.03
2022-08-24T10:50:08.962Z,38.60
2022-08-24T10:52:36.804Z,52.55
2022-08-24T10:55:31.615Z,40.60
2022-08-24T10:58:49.566Z,31.33
2022-08-24T11:01:24.262Z,34.85
2022-08-24T11:03:56.294Z,41.50
2022-08-24T11:06:25.880Z,44.47
2022-08-24T11:09:04.570Z,30.92
2022-08-24T11:11:36.185Z,41.78
2022-08-24T11:14:26.922Z,38.30
2022-08-24T11:19:36.027Z,41.72
2022-08-24T11:22:20.623Z,40.83
2022-08-24T11:24:48.771Z,39.85
2022-08-24T11:28:11.394Z,46.47
2022-08-24T11:30:40.642Z,37.78
2022-08-24T11:37:13.902Z,38.33
2022-08-24T11:43:26.558Z,24.48
2022-08-24T11:47:58.787Z,27.83
2022-08-24T11:49:59.889Z,42.28
2022-08-24T11:52:47.700Z,45.38
2022-08-24T11:55:47.077Z,48.05
2022-08-24T11:58:37.805Z,43.20
2022-08-24T12:01:44.459Z,47.95
2022-08-24T12:04:33.462Z,41.58
2022-08-24T12:07:22.573Z,31.23
2022-08-24T12:10:01.932Z,45.20
2022-08-24T12:12:35.408Z,43.47
2022-08-24T12:15:42.442Z,37.17
2022-08-24T12:18:31.043Z,42.35
2022-08-24T12:24:18.466Z,44.05
2022-08-24T12:26:51.866Z,44.67
2022-08-24T12:29:18.727Z,36.17
2022-08-24T12:32:00.762Z,39.33
2022-08-24T12:34:56.815Z,47.22
2022-08-24T12:37:48.581Z,47.92
2022-08-24T12:41:14.623Z,51.30
2022-08-24T12:44:25.432Z,51.75
2022-08-24T12:47:03.861Z,38.78
2022-08-24T12:50:00.932Z,29.60
2022-08-24T12:53:05.165Z,31.92
2022-08-24T12:56:18.258Z,40.92
2022-08-24T12:59:00.142Z,32.67
2022-08-24T13:01:33.760Z,32.95
2022-08-24T13:04:08.446Z,32.85
2022-08-24T13:06:42.747Z,33.75
2022-08-24T13:09:28.561Z,34.33
2022-08-24T13:11:57.451Z,34.47
2022-08-24T13:14:30.396Z,36.65
2022-08-24T13:16:57.279Z,37.25
2022-08-24T13:19:26.758Z,39.05
2022-08-24T13:22:00.738Z,38.65
2022-08-24T13:24:30.938Z,46.15
2022-08-24T13:27:13.196Z,39.85
2022-08-24T13:29:45.106Z,37.33
2022-08-24T13:32:35.591Z,50.88
2022-08-24T13:35:40.113Z,43.00
2022-08-24T13:38:34.338Z,41.03
2022-08-24T13:41:41.684Z,31.60
2022-08-24T13:44:44.249Z,31.73
2022-08-24T13:47:18.643Z,39.72
2022-08-24T13:50:12.917Z,42.05
2022-08-24T13:52:55.015Z,53.58
2022-08-24T13:55:53.128Z,44.53
2022-08-24T13:58:52.671Z,52.72
2022-08-24T14:01:31.797Z,47.70
2022-08-24T14:04:24.060Z,32.63
2022-08-24T14:06:54.125Z,42.35
2022-08-24T14:09:57.051Z,32.83
2022-08-24T14:16:22.464Z,40.45
2022-08-24T14:19:16.014Z,46.53
2022-08-24T14:21:51.011Z,45.05
2022-08-24T14:24:46.662Z,48.05
2022-08-24T14:27:35.555Z,42.88
2022-08-24T14:30:17.912Z,41.33
2022-08-24T14:33:28.219Z,46.20
2022-08-24T14:36:19.284Z,51.53
2022-08-24T14:39:05.481Z,48.92
2022-08-24T14:41:50.859Z,48.03
2022-08-24T14:44:33.956Z,49.15
2022-08-24T14:47:04.564Z,50.90
2022-08-24T14:49:46.765Z,38.88
2022-08-24T14:52:31.812Z,44.67
2022-08-24T14:55:16.158Z,53.67
2022-08-24T14:58:10.456Z,39.80
2022-08-24T15:01:06.723Z,51.10
2022-08-24T15:04:12.992Z,47.35
2022-08-24T15:06:39.866Z,32.15
2022-08-24T15:09:26.454Z,36.15
2022-08-24T15:12:01.955Z,46.60
2022-08-24T15:14:53.797Z,36.95
2022-08-24T15:17:53.525Z,41.97
2022-08-24T15:20:39.628Z,44.20
2022-08-24T15:23:28.498Z,37.60
2022-08-24T15:26:04.813Z,38.75
2022-08-24T15:28:33.678Z,38.63
2022-08-24T15:31:09.044Z,43.05
2022-08-24T15:33:52.805Z,38.63
2022-08-24T15:36:20.417Z,45.03
2022-08-24T15:38:47.908Z,41.38
2022-08-24T15:41:20.733Z,46.20
2022-08-24T15:43:52.305Z,38.20
2022-08-24T15:46:23.304Z,55.42
2022-08-24T15:48:51.090Z,37.92
2022-08-24T15:51:42.671Z,47.85
2022-08-24T15:54:33.649Z,47.20
2022-08-24T15:57:09.318Z,48.17
2022-08-24T15:59:42.004Z,39.42
2022-08-24T16:02:28.659Z,42.38
2022-08-24T16:05:17.164Z,41.10
2022-08-24T16:08:02.496Z,38.30
2022-08-24T16:10:43.714Z,48.25
2022-08-24T16:13:19.415Z,47.75
2022-08-24T16:16:11.826Z,44.30
2022-08-24T16:18:47.060Z,44.10
2022-08-24T16:21:18.970Z,43.55
2022-08-24T16:23:54.698Z,42.38
2022-08-24T16:26:28.000Z,48.58
2022-08-24T16:28:56.425Z,46.67
2022-08-24T16:31:45.809Z,46.97
2022-08-24T16:34:32.566Z,54.20
2022-08-24T16:36:59.932Z,45.55
2022-08-24T16:39:27.635Z,48.30
2022-08-24T16:41:58.465Z,51.88
2022-08-24T16:44:33.933Z,48.92
2022-08-24T16:47:02.082Z,48.58
2022-08-24T16:49:29.262Z,52.15
2022-08-24T16:51:56.098Z,56.75
2022-08-24T16:54:23.476Z,44.47
2022-08-24T16:56:50.520Z,42.78
2022-08-24T16:59:30.604Z,52.60
2022-08-24T17:01:57.975Z,43.58
2022-08-24T17:04:26.163Z,50.25
2022-08-24T17:06:56.013Z,46.97
2022-08-24T17:09:23.551Z,45.90
2022-08-24T17:11:50.618Z,47.13
2022-08-24T17:14:18.010Z,47.38
2022-08-24T17:16:44.985Z,52.28
2022-08-24T17:19:18.633Z,64.72
2022-08-24T17:21:46.034Z,53.22
2022-08-24T17:24:13.202Z,43.92
2022-08-24T17:26:48.308Z,43.33
2022-08-24T17:29:18.450Z,57.45
2022-08-24T17:31:49.392Z,37.65
2022-08-24T17:34:34.384Z,40.28
2022-08-24T17:37:01.668Z,46.55
2022-08-24T17:39:29.029Z,31.75
2022-08-24T17:41:58.471Z,36.75
2022-08-24T17:44:28.153Z,44.95
2022-08-24T17:46:57.799Z,42.33
2022-08-24T17:49:26.337Z,39.00
2022-08-24T17:51:56.557Z,50.78
2022-08-24T17:54:24.131Z,37.75
2022-08-24T17:56:51.353Z,35.45
2022-08-24T17:59:34.975Z,35.28
2022-08-24T18:02:09.064Z,46.85
2022-08-24T18:04:37.007Z,52.28
2022-08-24T18:07:11.964Z,42.90
2022-08-24T18:09:50.678Z,44.03
2022-08-24T18:12:26.021Z,53.72
2022-08-24T18:14:53.929Z,46.40
2022-08-24T18:17:32.821Z,53.60
2022-08-24T18:19:59.994Z,44.25
2022-08-24T18:22:26.823Z,44.05
2022-08-24T18:24:53.867Z,40.83
2022-08-24T18:27:32.642Z,55.47
2022-08-24T18:30:20.441Z,56.30
2022-08-24T18:32:49.784Z,43.92
2022-08-24T18:35:16.832Z,42.92
2022-08-24T18:37:44.089Z,60.90
2022-08-24T18:40:11.902Z,51.92
2022-08-24T18:42:48.586Z,52.47
2022-08-24T18:45:15.502Z,53.60
2022-08-24T18:47:42.517Z,46.10
2022-08-24T18:50:10.055Z,48.17
2022-08-24T18:52:42.490Z,62.67
2022-08-24T18:55:09.856Z,46.85
2022-08-24T18:57:36.731Z,53.00
2022-08-24T19:00:06.095Z,38.17
2022-08-24T19:02:33.512Z,31.23
2022-08-24T19:05:08.135Z,36.70
2022-08-24T19:07:39.461Z,40.30
2022-08-24T19:10:08.883Z,36.80
2022-08-24T19:12:43.501Z,30.83
2022-08-24T19:15:30.934Z,35.90
2022-08-24T19:18:03.105Z,33.25
2022-08-24T19:20:32.895Z,29.85
2022-08-24T19:23:24.785Z,26.85
2022-08-24T19:25:52.456Z,26.00
2022-08-24T19:28:19.392Z,29.98
2022-08-24T19:30:47.172Z,24.17
2022-08-24T19:33:19.330Z,26.13
2022-08-24T19:35:46.257Z,27.52
2022-08-24T19:38:13.278Z,27.00
2022-08-24T19:40:40.152Z,22.40
2022-08-24T19:43:15.910Z,22.85
2022-08-24T19:46:01.654Z,20.63
2022-08-24T19:48:39.761Z,22.02
2022-08-24T19:51:09.671Z,24.52
2022-08-24T19:53:37.953Z,28.20
2022-08-24T19:56:06.749Z,24.73
2022-08-24T19:58:47.763Z,17.37
2022-08-24T20:01:20.201Z,23.85
2022-08-24T20:03:47.709Z,18.48
2022-08-24T20:06:15.655Z,22.55
2022-08-24T20:08:43.263Z,23.30
2022-08-24T20:11:15.927Z,22.83
2022-08-24T20:13:43.852Z,23.83
2022-08-24T20:16:17.170Z,20.00
2022-08-24T20:18:44.688Z,17.87
2022-08-24T20:21:12.055Z,14.63
2022-08-24T20:23:39.316Z,15.67
2022-08-24T20:26:07.886Z,17.57
2022-08-24T20:28:43.290Z,16.47
2022-08-24T20:31:10.431Z,16.57
2022-08-24T20:33:44.679Z,14.00
2022-08-24T20:36:23.786Z,18.40
2022-08-24T20:38:51.223Z,12.37
2022-08-24T20:41:18.245Z,13.73
2022-08-24T20:43:45.275Z,13.93
2022-08-24T20:46:12.287Z,13.07
2022-08-24T20:48:42.952Z,12.20
2022-08-24T20:51:10.640Z,11.80
2022-08-24T20:53:37.703Z,15.20
2022-08-24T20:56:10.191Z,10.77
2022-08-24T20:58:40.719Z,13.10
2022-08-24T21:01:08.801Z,9.50
2022-08-24T21:03:37.210Z,13.87
2022-08-24T21:06:05.023Z,14.63
2022-08-24T21:08:32.396Z,7.70
2022-08-24T21:10:59.453Z,13.20
2022-08-24T21:13:26.400Z,12.80
2022-08-24T21:15:53.407Z,14.93
2022-08-24T21:18:20.785Z,12.43
2022-08-24T21:21:03.229Z,13.57
2022-08-24T21:23:31.377Z,9.57
2022-08-24T21:25:59.424Z,11.03
2022-08-24T21:28:26.517Z,14.70
2022-08-24T21:30:54.433Z,11.13
2022-08-24T21:33:40.016Z,13.27
2022-08-24T21:36:07.998Z,13.63
2022-08-24T21:38:35.814Z,11.03
2022-08-24T21:41:02.943Z,12.97
2022-08-24T21:43:32.469Z,17.53
2022-08-24T21:46:00.475Z,12.60
2022-08-24T21:48:27.412Z,13.67
2022-08-24T21:50:54.357Z,12.00
2022-08-24T21:53:21.264Z,16.97
2022-08-24T21:55:54.777Z,12.67
2022-08-24T21:58:21.933Z,17.87
2022-08-24T22:00:48.783Z,15.10
2022-08-24T22:03:15.674Z,13.13
2022-08-24T22:05:42.759Z,17.83
2022-08-24T22:08:09.582Z,17.10
2022-08-24T22:10:36.573Z,20.17
2022-08-24T22:13:04.770Z,13.67
2022-08-24T22:15:33.210Z,16.13
2022-08-24T22:18:00.759Z,18.03
2022-08-24T22:20:27.626Z,16.33
2022-08-24T22:22:54.469Z,11.83
2022-08-24T22:25:21.394Z,15.40
2022-08-24T22:27:49.058Z,17.47
2022-08-24T22:30:18.106Z,16.00
2022-08-24T22:32:46.311Z,19.10
2022-08-24T22:35:13.327Z,21.60
2022-08-24T22:37:40.248Z,16.37
2022-08-24T22:40:12.409Z,18.70
2022-08-24T22:42:40.119Z,14.73
2022-08-24T22:45:08.419Z,16.10
2022-08-24T22:47:35.881Z,18.67
2022-08-24T22:50:03.819Z,16.90
2022-08-24T22:52:30.758Z,17.57
2022-08-24T22:54:58.082Z,17.43
2022-08-24T22:57:25.454Z,16.30
2022-08-24T22:59:53.911Z,15.97
2022-08-24T23:02:20.866Z,15.97
2022-08-24T23:04:50.234Z,16.47
2022-08-24T23:07:17.890Z,12.50
2022-08-24T23:09:46.011Z,13.97
2022-08-24T23:12:16.785Z,13.00
2022-08-24T23:14:44.084Z,14.00
2022-08-24T23:17:11.504Z,14.40
2022-08-24T23:19:56.933Z,10.87
2022-08-24T23:22:23.801Z,15.40
2022-08-24T23:24:53.084Z,11.77
2022-08-24T23:27:20.431Z,11.50
2022-08-24T23:29:49.397Z,12.90
2022-08-24T23:32:18.275Z,13.80
2022-08-24T23:34:48.999Z,14.57
2022-08-24T23:37:17.117Z,12.90
2022-08-24T23:39:44.323Z,12.50
2022-08-24T23:42:11.225Z,14.77
2022-08-24T23:44:39.149Z,12.00
2022-08-24T23:47:06.502Z,10.30
2022-08-24T23:49:33.455Z,14.07
2022-08-24T23:52:00.386Z,18.60
2022-08-24T23:54:27.670Z,16.33
2022-08-24T23:56:55.501Z,13.37
2022-08-24T23:59:29.526Z,11.97
